Station: Noarlunga

  Atmospheric Gas Attenuation - ITU Rec 676-11   --------------- db/100km ---------------
Date Time Temp RH % AH g/m3 Dew Point Wind Direction Speed kph Gust kph Barometer mB Rainfall Since 9am 24GHz 47GHz 76GHz 122GHz 134GHz 241GHz
15 01:20 10.4 95 9.16 9.6 17 19 1013.1 19.4 21.0 27.9 43.9 115.4 110.7 380.9
15 01:10 10.4 95 9.16 9.6 15 17 1013.1 19.4 21.0 27.9 43.9 115.4 110.7 380.9
15 01:00 10.3 95 9.1 9.5 9 11 1013.1 19.4 20.8 27.8 43.7 114.9 110.0 378.4
15 00:50 10.5 93 9.02 9.5 15 15 1013.1 19.4 20.7 27.6 43.3 113.7 108.5 373.5
15 00:40 10.7 93 9.14 9.6 15 19 1013.1 19.4 20.9 27.7 43.7 114.8 109.9 378.5
15 00:30 10.8 93 9.19 9.7 15 17 1013.1 19.4 21.0 27.8 43.8 115.2 110.5 380.4
15 00:20 10.9 93 9.25 9.9 9 13 1013.1 19.4 21.1 27.9 44.0 115.7 111.2 382.9
15 00:10 11 95 9.51 10.2 9 11 1013.1 19.4 21.7 28.3 45.1 118.5 114.7 395.2
15 00:00 11.1 95 9.57 10.3 9 11 1013.1 19.4 21.8 28.3 45.3 119.1 115.4 397.7
14 23:50 11.1 95 9.57 10.3 7 7 1013.1 19.4 21.8 28.3 45.3 119.1 115.4 397.7
14 23:40 11.1 95 9.57 10.3 13 17 1013.1 19.4 21.8 28.3 45.3 119.1 115.4 397.7
14 23:30 11.2 95 9.63 10.4 13 20 1013.1 19.4 21.9 28.4 45.5 119.6 116.1 400.2
14 23:20 11.2 95 9.63 10.4 11 17 1013.1 19.4 21.9 28.4 45.5 119.6 116.1 400.2
14 23:10 11.3 95 9.69 10.5 13 15 1013.1 19.4 22.1 28.5 45.7 120.2 116.8 402.6
14 23:00 11.3 95 9.69 10.5 17 22 1013.1 19.4 22.1 28.5 45.7 120.2 116.8 402.6
14 22:50 11.3 95 9.69 10.5 17 22 1013.1 19.4 22.1 28.5 45.7 120.2 116.8 402.6
14 22:40 11.3 95 9.69 10.5 19 24 1013.1 19.4 22.1 28.5 45.7 120.2 116.8 402.6
14 22:30 11.2 95 9.63 10.5 17 22 1013.1 19.4 21.9 28.4 45.5 119.6 116.1 400.2
14 22:20 11.2 95 9.63 10.5 17 22 1013.1 19.4 21.9 28.4 45.5 119.6 116.1 400.2
14 22:10 11.1 95 9.57 10.4 20 28 1013.1 19.4 21.8 28.3 45.3 119.1 115.4 397.7
14 22:00 11.2 95 9.63 10.5 22 26 1013.1 19.4 21.9 28.4 45.5 119.6 116.1 400.2
14 21:50 11.1 97 9.77 10.6 17 20 1013.1 19.4 22.2 28.7 46.2 121.4 118.3 407.7
14 21:40 11.1 97 9.77 10.6 15 17 1013.1 19.4 22.2 28.7 46.2 121.4 118.3 407.7
14 21:30 11.3 97 9.9 10.8 11 15 1013.1 19.4 22.5 28.9 46.6 122.6 119.8 413.1
14 21:20 11.4 97 9.96 10.9 17 20 1013.1 19.4 22.6 28.9 46.8 123.1 120.5 415.6
14 21:10 11.5 97 10.02 11 19 24 1013.1 19.4 22.8 29.0 47.0 123.7 121.2 418.0
14 21:00 11.6 98 10.19 11.3 24 28 1013.1 19.4 23.1 29.3 47.7 125.5 123.5 426.0
14 20:50 11.8 99 10.42 11.6 20 28 1013.1 19.4 23.6 29.6 48.6 127.9 126.5 436.5
14 20:40 11.9 99 10.49 11.7 17 24 1013.1 19.4 23.8 29.7 48.8 128.5 127.4 439.5
14 20:30 12 99 10.55 11.8 15 17 1013.1 19.4 23.9 29.8 49.0 129.1 128.1 442.0
14 20:20 12.1 99 10.62 11.9 15 20 1013.1 19.4 24.0 29.9 49.3 129.7 128.9 444.9
14 20:10 12.3 99 10.75 12.1 20 24 1013.1 19.4 24.3 30.0 49.7 130.9 130.5 450.4
14 20:00 12.4 99 10.82 12.2 19 22 1013.1 19.2 24.4 30.1 50.0 131.6 131.3 453.3
14 19:50 12.6 99 10.95 12.4 15 20 1013.1 19.2 24.7 30.3 50.4 132.8 132.9 458.8
14 19:40 12.9 99 11.16 12.7 17 19 1013.1 19.2 25.1 30.5 51.2 134.7 135.4 467.7
14 19:30 13.2 99 11.37 13 19 22 1013.1 15.8 25.6 30.8 51.9 136.7 137.9 476.6
14 19:20 13.7 99 11.72 13.5 9 11 1013.1 9.8 26.3 31.3 53.1 140.0 142.1 491.4
14 19:10 14.4 99 12.24 14.2 4 7 1013.1 7.2 27.4 31.9 55.0 144.9 148.5 513.6
14 19:00 14.3 99 12.16 14.1 4 4 1013.1 7 27.2 31.8 54.7 144.2 147.5 510.1
14 18:50 14.4 99 12.24 14.2 0 0 1013.1 7 27.4 31.9 55.0 144.9 148.5 513.6
14 18:40 14.4 99 12.24 14.2 0 0 1013.1 7 27.4 31.9 55.0 144.9 148.5 513.6
14 18:30 14.5 99 12.31 14.3 0 2 1013.1 7 27.5 32.0 55.2 145.6 149.3 516.5
14 18:20 14.4 99 12.24 14.2 2 2 1013.1 7 27.4 31.9 55.0 144.9 148.5 513.6
14 18:10 14.6 99 12.39 14.4 2 4 1013.1 7 27.7 32.1 55.5 146.4 150.3 520.0
14 18:00 14.7 99 12.46 14.5 4 6 1013.1 7 27.8 32.2 55.8 147.0 151.2 523.0
14 17:50 14.7 99 12.46 14.5 2 4 1013.1 7 27.8 32.2 55.8 147.0 151.2 523.0
14 17:40 14.9 99 12.62 14.7 6 7 1013.1 7 28.2 32.5 56.3 148.6 153.1 529.9
14 17:30 15 99 12.69 14.8 6 9 1013.1 7 28.3 32.5 56.6 149.2 154.0 532.8
14 17:20 15 99 12.69 14.8 4 6 1013.1 7 28.3 32.5 56.6 149.2 154.0 532.8
14 17:10 15.3 99 12.93 15.1 0 0 1013.1 7 28.8 32.9 57.5 151.6 157.0 543.2
14 17:00 15.4 99 13.01 15.2 4 4 1013.1 7 29.0 33.0 57.8 152.3 157.9 546.7
14 16:50 15.5 99 13.09 15.3 0 0 1013.1 7 29.1 33.1 58.0 153.1 158.9 550.1
14 16:40 15.4 99 13.01 15.2 4 6 1013.1 7 29.0 33.0 57.8 152.3 157.9 546.7
14 16:30 15.4 99 13.01 15.2 0 0 1013.1 7 29.0 33.0 57.8 152.3 157.9 546.7
14 16:20 15.2 97 12.59 14.8 0 0 1013.1 7 28.1 32.3 56.0 147.6 152.1 526.2
14 16:10 15.2 97 12.59 14.8 0 0 1013.1 7 28.1 32.3 56.0 147.6 152.1 526.2
14 16:00 15.2 97 12.59 14.8 0 0 1013.1 7 28.1 32.3 56.0 147.6 152.1 526.2
14 15:50 15.4 97 12.74 15 0 0 1013.1 6.8 28.4 32.5 56.5 149.1 153.9 532.6
14 15:40 15.6 97 12.9 15.2 2 2 1013.1 6.6 28.7 32.7 57.1 150.6 155.9 539.5
14 15:30 15.6 97 12.9 15.1 4 6 1013.1 6.4 28.7 32.7 57.1 150.6 155.9 539.5
14 15:20 15.5 96 12.69 14.8 0 0 1013.1 6.2 28.3 32.4 56.2 148.3 153.0 529.3
14 15:10 15.8 94 12.65 14.8 2 4 1013.1 5.2 28.2 32.2 55.8 147.2 151.8 525.2
14 15:00 15.9 91 12.32 14.4 4 6 1013.1 2.6 27.4 31.5 54.3 143.1 146.7 507.7
14 14:50 15.9 90 12.19 14.2 4 6 1013.1 2.6 27.2 31.3 53.7 141.5 144.8 501.1
14 14:40 15.9 89 12.05 14.1 4 4 1013.1 2.6 26.9 31.1 53.1 139.9 142.8 494.0
14 14:30 16.1 90 12.34 14.5 6 7 1013.1 2.6 27.5 31.5 54.2 142.9 146.6 507.3
14 14:20 16.1 88 12.06 14.2 6 7 1013.1 2.6 26.9 31.0 53.0 139.7 142.6 493.2
14 14:10 16.3 91 12.62 14.8 2 4 1013.1 2.6 28.1 31.9 55.3 145.9 150.3 520.2
14 14:00 15.8 92 12.38 14.5 6 7 1013.1 2.6 27.6 31.7 54.6 144.0 147.8 511.4
14 13:50 15.6 94 12.5 14.6 6 7 1013.1 2.6 27.9 32.0 55.3 145.8 150.0 518.9
14 13:40 15.7 99 13.25 15.5 6 7 1013.1 2.6 29.5 33.3 58.6 154.7 160.9 557.1
14 13:30 14.8 99 12.54 14.6 9 15 1013.1 2.6 28.0 32.3 56.1 147.8 152.2 526.4
14 13:20 14.4 99 12.24 14.2 9 11 1013.1 2.6 27.4 31.9 55.0 144.9 148.5 513.6
14 13:10 14.5 99 12.31 14.3 11 13 1013.1 2.6 27.5 32.0 55.2 145.6 149.3 516.5
14 13:00 14.3 96 11.79 13.7 15 26 1013.1 2.6 26.4 31.2 53.0 139.7 142.0 491.1
14 12:50 13.9 99 11.87 13.7 17 19 1013.1 2.6 26.6 31.5 53.7 141.4 144.0 497.8
14 12:40 14.2 99 12.09 14 13 19 1013.1 2.6 27.1 31.7 54.4 143.5 146.7 507.2
14 12:30 13.9 99 11.87 13.7 13 17 1013.1 2.4 26.6 31.5 53.7 141.4 144.0 497.8
14 12:20 14.2 99 12.09 14 15 19 1013.1 2 27.1 31.7 54.4 143.5 146.7 507.2
14 12:10 14.2 99 12.09 14 9 11 1013.1 1.6 27.1 31.7 54.4 143.5 146.7 507.2
14 12:00 14.2 99 12.09 14 11 15 1013.1 1.4 27.1 31.7 54.4 143.5 146.7 507.2
14 11:50 14.4 99 12.24 14.2 15 20 1013.1 1.4 27.4 31.9 55.0 144.9 148.5 513.6
14 11:40 14.3 99 12.16 14.1 19 20 1013.1 1.4 27.2 31.8 54.7 144.2 147.5 510.1
14 11:30 14.2 99 12.09 14 20 26 1013.1 1.4 27.1 31.7 54.4 143.5 146.7 507.2
14 11:20 14.2 99 12.09 14 17 22 1013.1 1.4 27.1 31.7 54.4 143.5 146.7 507.2
14 11:10 14.1 97 11.77 13.7 15 17 1013.1 1.4 26.4 31.2 53.1 139.9 142.1 491.4
14 11:00 14.1 97 11.77 13.7 13 17 1013.1 1.4 26.4 31.2 53.1 139.9 142.1 491.4
14 10:50 14.1 97 11.77 13.7 15 19 1013.1 1.4 26.4 31.2 53.1 139.9 142.1 491.4
14 10:40 14.4 92 11.37 13.2 13 17 1013.1 0 25.5 30.4 51.1 134.6 135.8 469.2
14 10:30 14.7 91 11.46 13.2 11 13 1013.1 0 25.7 30.4 51.3 135.1 136.5 471.8
14 10:20 14.7 89 11.21 13 19 24 1013.1 0 25.1 30.0 50.2 132.2 132.9 459.3
14 10:10 14.7 92 11.58 13.4 13 17 1013.1 0 25.9 30.7 51.8 136.5 138.2 477.9
14 10:00 14.5 91 11.32 13 15 19 1013.1 0 25.4 30.3 50.8 133.8 134.9 466.0
14 09:50 14.4 91 11.25 12.9 15 20 1013.1 0 25.2 30.2 50.6 133.2 134.0 463.1
14 09:40 14.4 91 11.25 12.9 13 15 1013.1 0 25.2 30.2 50.6 133.2 134.0 463.1
14 09:30 14.3 91 11.18 12.8 15 19 1013.1 0 25.1 30.1 50.3 132.5 133.2 460.2
14 09:20 14.1 91 11.04 12.6 17 20 1013.1 0 24.8 29.9 49.8 131.3 131.5 454.4
14 09:10 14.1 91 11.04 12.6 13 17 1013.1 0 24.8 29.9 49.8 131.3 131.5 454.4
14 09:00 14.1 89 10.8 12.4 19 24 1013.1 0 24.3 29.5 48.8 128.5 128.1 442.4
14 08:50 14.1 89 10.8 12.4 19 28 1013.1 10.6 24.3 29.5 48.8 128.5 128.1 442.4

Last Refresh: 15-Jun-2024 01:32:12

Bureau of Meteorology